sensor_id;sensor_type;location;lat;lon;timestamp;temperature;humidity
26589;DHT22;14235;48.532;8.722;2023-04-24T00:02:14;11.50;99.90
26589;DHT22;14235;48.532;8.722;2023-04-24T00:04:39;13.70;99.90
26589;DHT22;14235;48.532;8.722;2023-04-24T00:07:06;12.50;99.90
26589;DHT22;14235;48.532;8.722;2023-04-24T00:09:33;11.70;99.90
26589;DHT22;14235;48.532;8.722;2023-04-24T00:11:58;12.00;99.90
26589;DHT22;14235;48.532;8.722;2023-04-24T00:14:24;12.70;99.90
26589;DHT22;14235;48.532;8.722;2023-04-24T00:16:50;12.10;99.90
26589;DHT22;14235;48.532;8.722;2023-04-24T00:19:15;11.60;99.90
26589;DHT22;14235;48.532;8.722;2023-04-24T00:21:41;11.80;99.90
26589;DHT22;14235;48.532;8.722;2023-04-24T00:24:07;11.70;99.90
26589;DHT22;14235;48.532;8.722;2023-04-24T00:26:34;12.00;99.90
26589;DHT22;14235;48.532;8.722;2023-04-24T00:29:00;12.10;99.90
26589;DHT22;14235;48.532;8.722;2023-04-24T00:31:25;11.70;99.90
26589;DHT22;14235;48.532;8.722;2023-04-24T00:33:51;11.70;99.90
26589;DHT22;14235;48.532;8.722;2023-04-24T00:36:16;11.90;99.90
26589;DHT22;14235;48.532;8.722;2023-04-24T00:38:44;11.60;99.90
26589;DHT22;14235;48.532;8.722;2023-04-24T00:41:10;11.80;99.90
26589;DHT22;14235;48.532;8.722;2023-04-24T00:43:36;13.30;99.90
26589;DHT22;14235;48.532;8.722;2023-04-24T00:46:02;12.30;99.90
26589;DHT22;14235;48.532;8.722;2023-04-24T00:48:27;11.90;99.90
26589;DHT22;14235;48.532;8.722;2023-04-24T00:50:53;11.90;99.90
26589;DHT22;14235;48.532;8.722;2023-04-24T00:53:19;11.70;99.90
26589;DHT22;14235;48.532;8.722;2023-04-24T00:55:45;11.90;99.90
26589;DHT22;14235;48.532;8.722;2023-04-24T00:58:12;12.10;99.90
26589;DHT22;14235;48.532;8.722;2023-04-24T01:00:38;12.90;99.90
26589;DHT22;14235;48.532;8.722;2023-04-24T01:03:05;11.80;99.90
26589;DHT22;14235;48.532;8.722;2023-04-24T01:05:31;11.80;99.90
26589;DHT22;14235;48.532;8.722;2023-04-24T01:07:58;11.80;99.90
26589;DHT22;14235;48.532;8.722;2023-04-24T01:10:25;11.70;99.90
26589;DHT22;14235;48.532;8.722;2023-04-24T01:12:53;11.70;99.90
26589;DHT22;14235;48.532;8.722;2023-04-24T01:15:18;11.90;99.90
26589;DHT22;14235;48.532;8.722;2023-04-24T01:17:44;11.50;99.90
26589;DHT22;14235;48.532;8.722;2023-04-24T01:20:10;11.30;99.90
26589;DHT22;14235;48.532;8.722;2023-04-24T01:22:36;11.20;99.90
26589;DHT22;14235;48.532;8.722;2023-04-24T01:25:02;11.80;99.90
26589;DHT22;14235;48.532;8.722;2023-04-24T01:27:28;11.50;99.90
26589;DHT22;14235;48.532;8.722;2023-04-24T01:29:54;11.90;99.90
26589;DHT22;14235;48.532;8.722;2023-04-24T01:32:20;11.70;99.90
26589;DHT22;14235;48.532;8.722;2023-04-24T01:34:47;13.00;99.90
26589;DHT22;14235;48.532;8.722;2023-04-24T01:37:13;12.10;99.90
26589;DHT22;14235;48.532;8.722;2023-04-24T01:39:39;11.80;99.90
26589;DHT22;14235;48.532;8.722;2023-04-24T01:42:05;11.60;99.90
26589;DHT22;14235;48.532;8.722;2023-04-24T01:44:31;11.50;99.90
26589;DHT22;14235;48.532;8.722;2023-04-24T01:46:56;11.60;99.90
26589;DHT22;14235;48.532;8.722;2023-04-24T01:49:22;11.50;99.90
26589;DHT22;14235;48.532;8.722;2023-04-24T01:51:48;12.80;99.90
26589;DHT22;14235;48.532;8.722;2023-04-24T01:54:14;11.70;99.90
26589;DHT22;14235;48.532;8.722;2023-04-24T01:56:41;11.40;99.90
26589;DHT22;14235;48.532;8.722;2023-04-24T01:59:11;11.30;99.90
26589;DHT22;14235;48.532;8.722;2023-04-24T02:01:37;11.90;99.90
26589;DHT22;14235;48.532;8.722;2023-04-24T02:04:04;11.40;99.90
26589;DHT22;14235;48.532;8.722;2023-04-24T02:06:30;12.00;99.90
26589;DHT22;14235;48.532;8.722;2023-04-24T02:08:58;11.30;99.90
26589;DHT22;14235;48.532;8.722;2023-04-24T02:11:24;11.60;99.90
26589;DHT22;14235;48.532;8.722;2023-04-24T02:13:50;11.30;99.90
26589;DHT22;14235;48.532;8.722;2023-04-24T02:16:17;11.20;99.90
26589;DHT22;14235;48.532;8.722;2023-04-24T02:18:43;11.30;99.90
26589;DHT22;14235;48.532;8.722;2023-04-24T02:21:09;11.00;99.90
26589;DHT22;14235;48.532;8.722;2023-04-24T02:23:34;11.20;99.90
26589;DHT22;14235;48.532;8.722;2023-04-24T02:26:00;11.10;99.90
26589;DHT22;14235;48.532;8.722;2023-04-24T02:28:25;11.30;99.90
26589;DHT22;14235;48.532;8.722;2023-04-24T02:30:51;11.40;99.90
26589;DHT22;14235;48.532;8.722;2023-04-24T02:33:16;11.10;99.90
26589;DHT22;14235;48.532;8.722;2023-04-24T02:35:42;11.30;99.90
26589;DHT22;14235;48.532;8.722;2023-04-24T02:38:08;12.60;99.90
26589;DHT22;14235;48.532;8.722;2023-04-24T02:40:33;10.90;99.90
26589;DHT22;14235;48.532;8.722;2023-04-24T02:42:59;12.60;99.90
26589;DHT22;14235;48.532;8.722;2023-04-24T02:45:24;13.30;99.90
26589;DHT22;14235;48.532;8.722;2023-04-24T02:47:50;11.30;99.90
26589;DHT22;14235;48.532;8.722;2023-04-24T02:50:15;11.30;99.90
26589;DHT22;14235;48.532;8.722;2023-04-24T02:52:41;11.40;99.90
26589;DHT22;14235;48.532;8.722;2023-04-24T02:55:07;11.20;99.90
26589;DHT22;14235;48.532;8.722;2023-04-24T02:57:33;11.40;99.90
26589;DHT22;14235;48.532;8.722;2023-04-24T02:59:59;11.10;99.90
26589;DHT22;14235;48.532;8.722;2023-04-24T03:02:25;11.20;99.90
26589;DHT22;14235;48.532;8.722;2023-04-24T03:04:50;11.20;99.90
26589;DHT22;14235;48.532;8.722;2023-04-24T03:07:16;11.10;99.90
26589;DHT22;14235;48.532;8.722;2023-04-24T03:09:41;11.70;99.90
26589;DHT22;14235;48.532;8.722;2023-04-24T03:12:08;11.00;99.90
26589;DHT22;14235;48.532;8.722;2023-04-24T03:14:33;10.90;99.90
26589;DHT22;14235;48.532;8.722;2023-04-24T03:17:00;11.10;99.90
26589;DHT22;14235;48.532;8.722;2023-04-24T03:19:25;11.10;99.90
26589;DHT22;14235;48.532;8.722;2023-04-24T03:21:51;13.00;99.90
26589;DHT22;14235;48.532;8.722;2023-04-24T03:24:16;12.30;99.90
26589;DHT22;14235;48.532;8.722;2023-04-24T03:26:42;11.10;99.90
26589;DHT22;14235;48.532;8.722;2023-04-24T03:29:08;11.20;99.90
26589;DHT22;14235;48.532;8.722;2023-04-24T03:31:33;10.70;99.90
26589;DHT22;14235;48.532;8.722;2023-04-24T03:33:59;12.40;99.90
26589;DHT22;14235;48.532;8.722;2023-04-24T03:36:24;10.60;99.90
26589;DHT22;14235;48.532;8.722;2023-04-24T03:38:51;10.80;99.90
26589;DHT22;14235;48.532;8.722;2023-04-24T03:41:17;12.30;99.90
26589;DHT22;14235;48.532;8.722;2023-04-24T03:43:42;10.90;99.90
26589;DHT22;14235;48.532;8.722;2023-04-24T03:46:08;10.90;99.90
26589;DHT22;14235;48.532;8.722;2023-04-24T03:48:34;10.60;99.90
26589;DHT22;14235;48.532;8.722;2023-04-24T03:51:00;10.80;99.90
26589;DHT22;14235;48.532;8.722;2023-04-24T03:53:26;10.80;99.90
26589;DHT22;14235;48.532;8.722;2023-04-24T03:55:52;11.10;99.90
26589;DHT22;14235;48.532;8.722;2023-04-24T03:58:18;11.30;99.90
26589;DHT22;14235;48.532;8.722;2023-04-24T04:00:44;10.90;99.90
26589;DHT22;14235;48.532;8.722;2023-04-24T04:03:09;10.90;99.90
26589;DHT22;14235;48.532;8.722;2023-04-24T04:05:35;10.90;99.90
26589;DHT22;14235;48.532;8.722;2023-04-24T04:08:01;11.20;99.90
26589;DHT22;14235;48.532;8.722;2023-04-24T04:10:26;11.40;99.90
26589;DHT22;14235;48.532;8.722;2023-04-24T04:12:52;11.20;99.90
26589;DHT22;14235;48.532;8.722;2023-04-24T04:15:17;10.90;99.90
26589;DHT22;14235;48.532;8.722;2023-04-24T04:17:43;10.90;99.90
26589;DHT22;14235;48.532;8.722;2023-04-24T04:20:08;10.80;99.90
26589;DHT22;14235;48.532;8.722;2023-04-24T04:22:36;10.90;99.90
26589;DHT22;14235;48.532;8.722;2023-04-24T04:25:02;10.90;99.90
26589;DHT22;14235;48.532;8.722;2023-04-24T04:27:28;11.20;99.90
26589;DHT22;14235;48.532;8.722;2023-04-24T04:29:58;10.80;99.90
26589;DHT22;14235;48.532;8.722;2023-04-24T04:32:24;10.80;99.90
26589;DHT22;14235;48.532;8.722;2023-04-24T04:34:50;10.80;99.90
26589;DHT22;14235;48.532;8.722;2023-04-24T04:37:18;10.90;99.90
26589;DHT22;14235;48.532;8.722;2023-04-24T04:39:44;10.90;99.90
26589;DHT22;14235;48.532;8.722;2023-04-24T04:42:10;11.10;99.90
26589;DHT22;14235;48.532;8.722;2023-04-24T04:44:35;11.00;99.90
26589;DHT22;14235;48.532;8.722;2023-04-24T04:47:01;11.00;99.90
26589;DHT22;14235;48.532;8.722;2023-04-24T04:49:31;10.90;99.90
26589;DHT22;14235;48.532;8.722;2023-04-24T04:51:57;10.90;99.90
26589;DHT22;14235;48.532;8.722;2023-04-24T04:54:23;11.10;99.90
26589;DHT22;14235;48.532;8.722;2023-04-24T04:56:51;11.10;99.90
26589;DHT22;14235;48.532;8.722;2023-04-24T04:59:17;11.00;99.90
26589;DHT22;14235;48.532;8.722;2023-04-24T05:01:43;11.10;99.90
26589;DHT22;14235;48.532;8.722;2023-04-24T05:04:08;11.00;99.90
26589;DHT22;14235;48.532;8.722;2023-04-24T05:06:34;10.90;99.90
26589;DHT22;14235;48.532;8.722;2023-04-24T05:08:59;11.00;99.90
26589;DHT22;14235;48.532;8.722;2023-04-24T05:11:25;10.80;99.90
26589;DHT22;14235;48.532;8.722;2023-04-24T05:13:50;10.70;99.90
26589;DHT22;14235;48.532;8.722;2023-04-24T05:16:16;10.80;99.90
26589;DHT22;14235;48.532;8.722;2023-04-24T05:18:42;10.70;99.90
26589;DHT22;14235;48.532;8.722;2023-04-24T05:21:07;10.60;99.90
26589;DHT22;14235;48.532;8.722;2023-04-24T05:23:33;10.60;99.90
26589;DHT22;14235;48.532;8.722;2023-04-24T05:25:58;10.40;99.90
26589;DHT22;14235;48.532;8.722;2023-04-24T05:28:24;11.20;99.90
26589;DHT22;14235;48.532;8.722;2023-04-24T05:30:56;10.50;99.90
26589;DHT22;14235;48.532;8.722;2023-04-24T05:33:22;10.80;99.90
26589;DHT22;14235;48.532;8.722;2023-04-24T05:35:48;10.50;99.90
26589;DHT22;14235;48.532;8.722;2023-04-24T05:38:14;10.60;99.90
26589;DHT22;14235;48.532;8.722;2023-04-24T05:40:42;10.30;99.90
26589;DHT22;14235;48.532;8.722;2023-04-24T05:43:08;11.20;99.90
26589;DHT22;14235;48.532;8.722;2023-04-24T05:45:34;12.10;99.90
26589;DHT22;14235;48.532;8.722;2023-04-24T05:48:01;10.60;99.90
26589;DHT22;14235;48.532;8.722;2023-04-24T05:50:27;11.50;99.90
26589;DHT22;14235;48.532;8.722;2023-04-24T05:52:53;10.90;99.90
26589;DHT22;14235;48.532;8.722;2023-04-24T05:55:18;10.80;99.90
26589;DHT22;14235;48.532;8.722;2023-04-24T05:57:44;11.20;99.90
26589;DHT22;14235;48.532;8.722;2023-04-24T06:00:10;12.70;99.90
26589;DHT22;14235;48.532;8.722;2023-04-24T06:02:38;11.10;99.90
26589;DHT22;14235;48.532;8.722;2023-04-24T06:05:04;11.10;99.90
26589;DHT22;14235;48.532;8.722;2023-04-24T06:07:30;11.20;99.90
26589;DHT22;14235;48.532;8.722;2023-04-24T06:09:56;12.20;99.90
26589;DHT22;14235;48.532;8.722;2023-04-24T06:12:22;11.20;99.90
26589;DHT22;14235;48.532;8.722;2023-04-24T06:14:47;11.20;99.90
26589;DHT22;14235;48.532;8.722;2023-04-24T06:17:14;11.00;99.90
26589;DHT22;14235;48.532;8.722;2023-04-24T06:19:39;12.40;99.90
26589;DHT22;14235;48.532;8.722;2023-04-24T06:22:05;11.20;99.90
26589;DHT22;14235;48.532;8.722;2023-04-24T06:24:31;11.50;99.90
26589;DHT22;14235;48.532;8.722;2023-04-24T06:26:56;12.70;99.90
26589;DHT22;14235;48.532;8.722;2023-04-24T06:29:24;10.90;99.90
26589;DHT22;14235;48.532;8.722;2023-04-24T06:31:49;12.10;99.90
26589;DHT22;14235;48.532;8.722;2023-04-24T06:34:15;11.60;99.90
26589;DHT22;14235;48.532;8.722;2023-04-24T06:36:41;12.20;99.90
26589;DHT22;14235;48.532;8.722;2023-04-24T06:39:06;11.30;99.90
26589;DHT22;14235;48.532;8.722;2023-04-24T06:41:32;11.30;99.90
26589;DHT22;14235;48.532;8.722;2023-04-24T06:43:58;11.50;99.90
26589;DHT22;14235;48.532;8.722;2023-04-24T06:46:23;12.50;99.90
26589;DHT22;14235;48.532;8.722;2023-04-24T06:48:52;13.50;99.90
26589;DHT22;14235;48.532;8.722;2023-04-24T06:51:17;11.00;99.90
26589;DHT22;14235;48.532;8.722;2023-04-24T06:53:43;12.30;99.90
26589;DHT22;14235;48.532;8.722;2023-04-24T06:56:09;10.60;99.90
26589;DHT22;14235;48.532;8.722;2023-04-24T06:58:35;10.20;99.90
26589;DHT22;14235;48.532;8.722;2023-04-24T07:01:00;11.80;99.90
26589;DHT22;14235;48.532;8.722;2023-04-24T07:03:26;9.90;99.90
26589;DHT22;14235;48.532;8.722;2023-04-24T07:05:51;10.10;99.90
26589;DHT22;14235;48.532;8.722;2023-04-24T07:08:18;11.30;99.90
26589;DHT22;14235;48.532;8.722;2023-04-24T07:10:45;10.80;99.90
26589;DHT22;14235;48.532;8.722;2023-04-24T07:13:11;11.20;99.90
26589;DHT22;14235;48.532;8.722;2023-04-24T07:15:37;12.40;99.90
26589;DHT22;14235;48.532;8.722;2023-04-24T07:18:02;12.90;99.90
26589;DHT22;14235;48.532;8.722;2023-04-24T07:20:28;10.90;99.90
26589;DHT22;14235;48.532;8.722;2023-04-24T07:22:53;10.50;99.90
26589;DHT22;14235;48.532;8.722;2023-04-24T07:25:19;12.70;99.90
26589;DHT22;14235;48.532;8.722;2023-04-24T07:27:45;11.80;99.90
26589;DHT22;14235;48.532;8.722;2023-04-24T07:30:11;10.70;99.90
26589;DHT22;14235;48.532;8.722;2023-04-24T07:32:37;11.20;99.90
26589;DHT22;14235;48.532;8.722;2023-04-24T07:35:02;12.40;99.90
26589;DHT22;14235;48.532;8.722;2023-04-24T07:37:28;11.20;99.90
26589;DHT22;14235;48.532;8.722;2023-04-24T07:39:55;11.70;99.90
26589;DHT22;14235;48.532;8.722;2023-04-24T07:42:20;12.60;99.90
26589;DHT22;14235;48.532;8.722;2023-04-24T07:44:46;12.70;99.90
26589;DHT22;14235;48.532;8.722;2023-04-24T07:47:13;10.40;99.90
26589;DHT22;14235;48.532;8.722;2023-04-24T07:49:41;12.50;99.90
26589;DHT22;14235;48.532;8.722;2023-04-24T07:52:07;11.60;99.90
26589;DHT22;14235;48.532;8.722;2023-04-24T07:54:33;10.60;99.90
26589;DHT22;14235;48.532;8.722;2023-04-24T07:56:58;10.70;99.90
26589;DHT22;14235;48.532;8.722;2023-04-24T07:59:25;11.20;99.90
26589;DHT22;14235;48.532;8.722;2023-04-24T08:01:51;10.40;99.80
26589;DHT22;14235;48.532;8.722;2023-04-24T08:04:16;11.00;99.60
26589;DHT22;14235;48.532;8.722;2023-04-24T08:06:43;12.30;99.90
26589;DHT22;14235;48.532;8.722;2023-04-24T08:09:09;12.30;99.50
26589;DHT22;14235;48.532;8.722;2023-04-24T08:11:35;10.50;99.40
26589;DHT22;14235;48.532;8.722;2023-04-24T08:14:00;12.00;97.50
26589;DHT22;14235;48.532;8.722;2023-04-24T08:16:26;10.60;97.30
26589;DHT22;14235;48.532;8.722;2023-04-24T08:18:53;11.20;97.40
26589;DHT22;14235;48.532;8.722;2023-04-24T08:21:18;11.50;96.70
26589;DHT22;14235;48.532;8.722;2023-04-24T08:23:45;11.70;96.90
26589;DHT22;14235;48.532;8.722;2023-04-24T08:26:12;11.30;96.60
26589;DHT22;14235;48.532;8.722;2023-04-24T08:28:38;11.00;96.80
26589;DHT22;14235;48.532;8.722;2023-04-24T08:31:03;13.10;98.10
26589;DHT22;14235;48.532;8.722;2023-04-24T08:33:29;11.30;97.20
26589;DHT22;14235;48.532;8.722;2023-04-24T08:36:04;10.60;95.00
26589;DHT22;14235;48.532;8.722;2023-04-24T08:38:30;11.00;96.30
26589;DHT22;14235;48.532;8.722;2023-04-24T08:41:00;11.80;97.70
26589;DHT22;14235;48.532;8.722;2023-04-24T08:43:27;11.10;96.50
26589;DHT22;14235;48.532;8.722;2023-04-24T08:45:54;11.00;96.50
26589;DHT22;14235;48.532;8.722;2023-04-24T08:48:22;12.50;97.40
26589;DHT22;14235;48.532;8.722;2023-04-24T08:50:50;11.00;95.90
26589;DHT22;14235;48.532;8.722;2023-04-24T08:53:18;10.50;96.40
26589;DHT22;14235;48.532;8.722;2023-04-24T08:55:46;11.50;96.30
26589;DHT22;14235;48.532;8.722;2023-04-24T08:58:13;12.40;96.40
26589;DHT22;14235;48.532;8.722;2023-04-24T09:00:39;13.90;96.20
26589;DHT22;14235;48.532;8.722;2023-04-24T09:03:10;11.80;93.60
26589;DHT22;14235;48.532;8.722;2023-04-24T09:05:36;12.30;94.00
26589;DHT22;14235;48.532;8.722;2023-04-24T09:08:02;10.90;93.00
26589;DHT22;14235;48.532;8.722;2023-04-24T09:10:30;12.20;92.50
26589;DHT22;14235;48.532;8.722;2023-04-24T09:12:56;11.40;91.90
26589;DHT22;14235;48.532;8.722;2023-04-24T09:15:24;12.00;91.70
26589;DHT22;14235;48.532;8.722;2023-04-24T09:17:50;13.00;92.90
26589;DHT22;14235;48.532;8.722;2023-04-24T09:20:15;12.50;91.30
26589;DHT22;14235;48.532;8.722;2023-04-24T09:22:42;11.60;91.40
26589;DHT22;14235;48.532;8.722;2023-04-24T09:25:09;10.60;91.40
26589;DHT22;14235;48.532;8.722;2023-04-24T09:27:35;11.20;92.10
26589;DHT22;14235;48.532;8.722;2023-04-24T09:30:02;11.10;92.40
26589;DHT22;14235;48.532;8.722;2023-04-24T09:32:28;11.40;91.10
26589;DHT22;14235;48.532;8.722;2023-04-24T09:35:14;11.80;90.80
26589;DHT22;14235;48.532;8.722;2023-04-24T09:37:42;11.50;90.70
26589;DHT22;14235;48.532;8.722;2023-04-24T09:40:18;11.30;90.30
26589;DHT22;14235;48.532;8.722;2023-04-24T09:42:55;11.40;90.40
26589;DHT22;14235;48.532;8.722;2023-04-24T09:45:22;11.70;90.30
26589;DHT22;14235;48.532;8.722;2023-04-24T09:47:52;11.70;87.20
26589;DHT22;14235;48.532;8.722;2023-04-24T09:50:19;13.00;90.30
26589;DHT22;14235;48.532;8.722;2023-04-24T09:53:05;11.40;89.10
26589;DHT22;14235;48.532;8.722;2023-04-24T09:55:31;11.90;88.90
26589;DHT22;14235;48.532;8.722;2023-04-24T09:57:58;11.60;89.30
26589;DHT22;14235;48.532;8.722;2023-04-24T10:00:31;11.60;87.40
26589;DHT22;14235;48.532;8.722;2023-04-24T10:03:02;11.60;88.80
26589;DHT22;14235;48.532;8.722;2023-04-24T10:05:35;11.70;88.60
26589;DHT22;14235;48.532;8.722;2023-04-24T10:08:10;11.70;88.40
26589;DHT22;14235;48.532;8.722;2023-04-24T10:10:44;11.90;90.20
26589;DHT22;14235;48.532;8.722;2023-04-24T10:13:11;11.70;90.70
26589;DHT22;14235;48.532;8.722;2023-04-24T10:15:38;11.50;91.00
26589;DHT22;14235;48.532;8.722;2023-04-24T10:18:05;11.80;92.30
26589;DHT22;14235;48.532;8.722;2023-04-24T10:20:32;11.80;93.20
26589;DHT22;14235;48.532;8.722;2023-04-24T10:22:58;12.70;93.60
26589;DHT22;14235;48.532;8.722;2023-04-24T10:25:27;11.60;93.30
26589;DHT22;14235;48.532;8.722;2023-04-24T10:27:53;11.30;93.60
26589;DHT22;14235;48.532;8.722;2023-04-24T10:30:23;11.30;93.90
26589;DHT22;14235;48.532;8.722;2023-04-24T10:32:48;11.80;94.20
26589;DHT22;14235;48.532;8.722;2023-04-24T10:35:15;11.80;93.90
26589;DHT22;14235;48.532;8.722;2023-04-24T10:37:49;11.60;93.60
26589;DHT22;14235;48.532;8.722;2023-04-24T10:40:34;11.90;93.60
26589;DHT22;14235;48.532;8.722;2023-04-24T10:43:03;11.70;93.70
26589;DHT22;14235;48.532;8.722;2023-04-24T10:45:31;12.00;93.40
26589;DHT22;14235;48.532;8.722;2023-04-24T10:48:06;11.60;93.20
26589;DHT22;14235;48.532;8.722;2023-04-24T10:53:20;12.30;93.00
26589;DHT22;14235;48.532;8.722;2023-04-24T10:55:51;11.90;93.00
26589;DHT22;14235;48.532;8.722;2023-04-24T10:58:22;12.10;91.80
26589;DHT22;14235;48.532;8.722;2023-04-24T11:00:58;11.90;91.20
26589;DHT22;14235;48.532;8.722;2023-04-24T11:03:32;11.60;90.90
26589;DHT22;14235;48.532;8.722;2023-04-24T11:06:04;11.90;91.50
26589;DHT22;14235;48.532;8.722;2023-04-24T11:08:43;11.70;91.40
26589;DHT22;14235;48.532;8.722;2023-04-24T11:16:21;11.20;91.60
26589;DHT22;14235;48.532;8.722;2023-04-24T11:21:47;11.30;92.30
26589;DHT22;14235;48.532;8.722;2023-04-24T11:24:30;11.60;92.40
26589;DHT22;14235;48.532;8.722;2023-04-24T11:29:43;11.50;92.20
26589;DHT22;14235;48.532;8.722;2023-04-24T11:32:46;11.50;92.90
26589;DHT22;14235;48.532;8.722;2023-04-24T11:35:18;11.30;92.80
26589;DHT22;14235;48.532;8.722;2023-04-24T11:37:48;11.10;92.20
26589;DHT22;14235;48.532;8.722;2023-04-24T11:40:16;11.20;93.00
26589;DHT22;14235;48.532;8.722;2023-04-24T11:42:43;11.20;92.40
26589;DHT22;14235;48.532;8.722;2023-04-24T11:45:14;11.50;92.70
26589;DHT22;14235;48.532;8.722;2023-04-24T11:47:41;11.50;92.00
26589;DHT22;14235;48.532;8.722;2023-04-24T11:50:10;11.50;92.50
26589;DHT22;14235;48.532;8.722;2023-04-24T11:52:40;11.60;92.20
26589;DHT22;14235;48.532;8.722;2023-04-24T11:55:07;11.70;92.90
26589;DHT22;14235;48.532;8.722;2023-04-24T11:57:33;12.10;93.00
26589;DHT22;14235;48.532;8.722;2023-04-24T12:00:02;12.30;92.30
26589;DHT22;14235;48.532;8.722;2023-04-24T12:02:29;12.30;91.70
26589;DHT22;14235;48.532;8.722;2023-04-24T12:04:54;12.30;91.90
26589;DHT22;14235;48.532;8.722;2023-04-24T12:07:21;12.90;90.60
26589;DHT22;14235;48.532;8.722;2023-04-24T12:09:49;12.60;91.10
26589;DHT22;14235;48.532;8.722;2023-04-24T12:12:16;12.60;91.00
26589;DHT22;14235;48.532;8.722;2023-04-24T12:14:50;12.50;90.80
26589;DHT22;14235;48.532;8.722;2023-04-24T12:17:17;12.60;90.70
26589;DHT22;14235;48.532;8.722;2023-04-24T12:19:49;12.60;90.70
26589;DHT22;14235;48.532;8.722;2023-04-24T12:22:16;12.20;91.60
26589;DHT22;14235;48.532;8.722;2023-04-24T12:25:03;12.10;90.50
26589;DHT22;14235;48.532;8.722;2023-04-24T12:27:33;12.20;91.20
26589;DHT22;14235;48.532;8.722;2023-04-24T12:30:01;11.80;92.20
26589;DHT22;14235;48.532;8.722;2023-04-24T12:32:27;12.10;92.90
26589;DHT22;14235;48.532;8.722;2023-04-24T12:34:53;12.20;93.00
26589;DHT22;14235;48.532;8.722;2023-04-24T12:37:19;12.30;91.70
26589;DHT22;14235;48.532;8.722;2023-04-24T12:40:03;12.60;91.30
26589;DHT22;14235;48.532;8.722;2023-04-24T12:42:30;12.80;90.20
26589;DHT22;14235;48.532;8.722;2023-04-24T12:45:01;12.60;90.20
26589;DHT22;14235;48.532;8.722;2023-04-24T12:47:28;12.70;90.40
26589;DHT22;14235;48.532;8.722;2023-04-24T12:49:54;12.50;90.00
26589;DHT22;14235;48.532;8.722;2023-04-24T12:52:24;12.20;89.20
26589;DHT22;14235;48.532;8.722;2023-04-24T12:54:52;12.20;88.40
26589;DHT22;14235;48.532;8.722;2023-04-24T12:57:18;11.80;89.20
26589;DHT22;14235;48.532;8.722;2023-04-24T12:59:44;11.90;90.20
26589;DHT22;14235;48.532;8.722;2023-04-24T13:02:11;12.00;89.70
26589;DHT22;14235;48.532;8.722;2023-04-24T13:04:36;12.60;90.40
26589;DHT22;14235;48.532;8.722;2023-04-24T13:07:02;12.50;90.00
26589;DHT22;14235;48.532;8.722;2023-04-24T13:09:28;12.60;88.40
26589;DHT22;14235;48.532;8.722;2023-04-24T13:11:54;12.40;88.00
26589;DHT22;14235;48.532;8.722;2023-04-24T13:14:21;12.40;86.20
26589;DHT22;14235;48.532;8.722;2023-04-24T13:16:47;12.40;87.00
26589;DHT22;14235;48.532;8.722;2023-04-24T13:19:12;12.20;84.80
26589;DHT22;14235;48.532;8.722;2023-04-24T13:21:38;12.30;86.90
26589;DHT22;14235;48.532;8.722;2023-04-24T13:24:04;12.40;86.90
26589;DHT22;14235;48.532;8.722;2023-04-24T13:26:30;12.20;86.50
26589;DHT22;14235;48.532;8.722;2023-04-24T13:28:56;12.30;87.30
26589;DHT22;14235;48.532;8.722;2023-04-24T13:31:21;12.30;86.50
26589;DHT22;14235;48.532;8.722;2023-04-24T13:33:47;12.40;84.80
26589;DHT22;14235;48.532;8.722;2023-04-24T13:36:13;12.10;84.20
26589;DHT22;14235;48.532;8.722;2023-04-24T13:38:39;12.30;85.50
26589;DHT22;14235;48.532;8.722;2023-04-24T13:41:05;12.20;85.60
26589;DHT22;14235;48.532;8.722;2023-04-24T13:43:30;12.40;85.50
26589;DHT22;14235;48.532;8.722;2023-04-24T13:45:56;12.30;85.90
26589;DHT22;14235;48.532;8.722;2023-04-24T13:48:21;12.40;84.80
26589;DHT22;14235;48.532;8.722;2023-04-24T13:50:47;12.30;84.90
26589;DHT22;14235;48.532;8.722;2023-04-24T13:53:14;12.20;85.20
26589;DHT22;14235;48.532;8.722;2023-04-24T13:55:40;12.40;85.70
26589;DHT22;14235;48.532;8.722;2023-04-24T13:58:06;12.20;86.20
26589;DHT22;14235;48.532;8.722;2023-04-24T14:00:31;12.10;85.30
26589;DHT22;14235;48.532;8.722;2023-04-24T14:02:57;12.10;86.10
26589;DHT22;14235;48.532;8.722;2023-04-24T14:05:23;11.80;86.80
26589;DHT22;14235;48.532;8.722;2023-04-24T14:07:48;11.90;86.20
26589;DHT22;14235;48.532;8.722;2023-04-24T14:10:14;11.80;86.40
26589;DHT22;14235;48.532;8.722;2023-04-24T14:12:40;11.50;87.10
26589;DHT22;14235;48.532;8.722;2023-04-24T14:15:06;11.50;88.00
26589;DHT22;14235;48.532;8.722;2023-04-24T14:17:31;11.70;87.50
26589;DHT22;14235;48.532;8.722;2023-04-24T14:19:57;11.70;87.60
26589;DHT22;14235;48.532;8.722;2023-04-24T14:22:25;12.00;87.90
26589;DHT22;14235;48.532;8.722;2023-04-24T14:24:50;11.80;86.70
26589;DHT22;14235;48.532;8.722;2023-04-24T14:27:16;12.00;87.20
26589;DHT22;14235;48.532;8.722;2023-04-24T14:29:42;12.40;85.90
26589;DHT22;14235;48.532;8.722;2023-04-24T14:32:07;12.60;85.40
26589;DHT22;14235;48.532;8.722;2023-04-24T14:34:34;12.60;85.60
26589;DHT22;14235;48.532;8.722;2023-04-24T14:37:00;12.40;84.30
26589;DHT22;14235;48.532;8.722;2023-04-24T14:39:25;12.80;83.70
26589;DHT22;14235;48.532;8.722;2023-04-24T14:41:51;13.50;82.60
26589;DHT22;14235;48.532;8.722;2023-04-24T14:44:16;13.90;81.30
26589;DHT22;14235;48.532;8.722;2023-04-24T14:46:42;13.70;81.40
26589;DHT22;14235;48.532;8.722;2023-04-24T14:49:08;13.70;79.00
26589;DHT22;14235;48.532;8.722;2023-04-24T14:51:35;14.00;80.00
26589;DHT22;14235;48.532;8.722;2023-04-24T14:54:01;14.10;79.80
26589;DHT22;14235;48.532;8.722;2023-04-24T14:56:27;13.40;80.30
26589;DHT22;14235;48.532;8.722;2023-04-24T14:58:52;13.40;80.50
26589;DHT22;14235;48.532;8.722;2023-04-24T15:01:18;13.30;80.40
26589;DHT22;14235;48.532;8.722;2023-04-24T15:03:44;13.20;81.30
26589;DHT22;14235;48.532;8.722;2023-04-24T15:06:09;12.90;80.00
26589;DHT22;14235;48.532;8.722;2023-04-24T15:08:35;12.60;81.60
26589;DHT22;14235;48.532;8.722;2023-04-24T15:11:01;12.40;82.00
26589;DHT22;14235;48.532;8.722;2023-04-24T15:13:26;12.40;84.00
26589;DHT22;14235;48.532;8.722;2023-04-24T15:15:52;12.50;83.60
26589;DHT22;14235;48.532;8.722;2023-04-24T15:18:18;12.10;84.40
26589;DHT22;14235;48.532;8.722;2023-04-24T15:20:43;12.20;84.10
26589;DHT22;14235;48.532;8.722;2023-04-24T15:23:09;12.20;83.80
26589;DHT22;14235;48.532;8.722;2023-04-24T15:25:34;12.40;83.20
26589;DHT22;14235;48.532;8.722;2023-04-24T15:28:00;13.80;81.30
26589;DHT22;14235;48.532;8.722;2023-04-24T15:30:26;15.40;77.10
26589;DHT22;14235;48.532;8.722;2023-04-24T15:32:52;15.60;73.70
26589;DHT22;14235;48.532;8.722;2023-04-24T15:35:17;15.00;73.40
26589;DHT22;14235;48.532;8.722;2023-04-24T15:37:43;14.50;73.50
26589;DHT22;14235;48.532;8.722;2023-04-24T15:40:10;14.00;75.70
26589;DHT22;14235;48.532;8.722;2023-04-24T15:42:39;13.70;76.00